sensor_id;sensor_type;location;lat;lon;timestamp;temperature;humidity
25200;DHT22;33094;48.782;9.162;2023-07-29T09:08:51;23.90;99.90
25200;DHT22;33094;48.782;9.162;2023-07-29T09:11:19;24.20;99.90
25200;DHT22;33094;48.782;9.162;2023-07-29T09:13:46;24.60;99.90
25200;DHT22;33094;48.782;9.162;2023-07-29T09:16:12;25.00;99.90
25200;DHT22;33094;48.782;9.162;2023-07-29T09:18:51;24.50;99.90
25200;DHT22;33094;48.782;9.162;2023-07-29T09:21:24;24.10;99.90
25200;DHT22;33094;48.782;9.162;2023-07-29T09:23:54;24.00;99.90
25200;DHT22;33094;48.782;9.162;2023-07-29T09:26:27;24.30;99.90
25200;DHT22;33094;48.782;9.162;2023-07-29T09:28:57;24.20;99.90
25200;DHT22;33094;48.782;9.162;2023-07-29T09:31:25;24.80;99.90
25200;DHT22;33094;48.782;9.162;2023-07-29T09:33:58;25.40;99.90
25200;DHT22;33094;48.782;9.162;2023-07-29T09:36:26;26.40;99.90
25200;DHT22;33094;48.782;9.162;2023-07-29T09:38:53;26.70;99.90
25200;DHT22;33094;48.782;9.162;2023-07-29T09:41:28;26.70;99.90
25200;DHT22;33094;48.782;9.162;2023-07-29T09:44:04;27.10;99.90
25200;DHT22;33094;48.782;9.162;2023-07-29T09:46:37;27.10;99.90
25200;DHT22;33094;48.782;9.162;2023-07-29T09:49:04;26.50;99.90
25200;DHT22;33094;48.782;9.162;2023-07-29T09:51:30;25.30;99.90
25200;DHT22;33094;48.782;9.162;2023-07-29T09:53:56;25.20;99.90
25200;DHT22;33094;48.782;9.162;2023-07-29T09:56:26;25.90;99.90
25200;DHT22;33094;48.782;9.162;2023-07-29T10:01:43;24.90;99.90
25200;DHT22;33094;48.782;9.162;2023-07-29T10:04:09;24.50;99.90
25200;DHT22;33094;48.782;9.162;2023-07-29T10:06:37;25.30;99.90
25200;DHT22;33094;48.782;9.162;2023-07-29T10:09:04;26.00;99.90
25200;DHT22;33094;48.782;9.162;2023-07-29T10:11:31;27.20;99.90
25200;DHT22;33094;48.782;9.162;2023-07-29T10:13:59;28.50;99.90
25200;DHT22;33094;48.782;9.162;2023-07-29T10:16:25;28.40;99.90
25200;DHT22;33094;48.782;9.162;2023-07-29T10:18:52;27.90;99.90
25200;DHT22;33094;48.782;9.162;2023-07-29T10:21:19;27.10;99.90
25200;DHT22;33094;48.782;9.162;2023-07-29T10:23:53;26.00;99.90
25200;DHT22;33094;48.782;9.162;2023-07-29T10:26:22;25.60;99.90
25200;DHT22;33094;48.782;9.162;2023-07-29T10:28:52;25.80;99.90
25200;DHT22;33094;48.782;9.162;2023-07-29T10:31:20;26.50;99.90
25200;DHT22;33094;48.782;9.162;2023-07-29T10:33:47;26.80;99.90
25200;DHT22;33094;48.782;9.162;2023-07-29T10:36:16;26.40;99.90
25200;DHT22;33094;48.782;9.162;2023-07-29T10:38:42;25.70;99.90
25200;DHT22;33094;48.782;9.162;2023-07-29T10:41:08;25.20;99.90
25200;DHT22;33094;48.782;9.162;2023-07-29T10:43:35;25.10;99.90
25200;DHT22;33094;48.782;9.162;2023-07-29T10:46:20;25.00;99.90
25200;DHT22;33094;48.782;9.162;2023-07-29T10:48:54;24.90;99.90
25200;DHT22;33094;48.782;9.162;2023-07-29T10:51:39;24.80;99.90
25200;DHT22;33094;48.782;9.162;2023-07-29T10:54:13;24.80;99.90
25200;DHT22;33094;48.782;9.162;2023-07-29T10:56:58;24.70;99.90
25200;DHT22;33094;48.782;9.162;2023-07-29T10:59:33;25.60;99.90
25200;DHT22;33094;48.782;9.162;2023-07-29T11:02:01;27.40;99.90
25200;DHT22;33094;48.782;9.162;2023-07-29T11:04:30;29.00;99.90
25200;DHT22;33094;48.782;9.162;2023-07-29T11:12:43;29.10;99.90
25200;DHT22;33094;48.782;9.162;2023-07-29T11:17:57;29.50;99.90
25200;DHT22;33094;48.782;9.162;2023-07-29T11:20:28;29.50;99.10
25200;DHT22;33094;48.782;9.162;2023-07-29T11:22:58;28.30;99.70
25200;DHT22;33094;48.782;9.162;2023-07-29T11:25:25;27.50;99.90
25200;DHT22;33094;48.782;9.162;2023-07-29T11:27:55;27.40;99.90
25200;DHT22;33094;48.782;9.162;2023-07-29T11:30:21;27.70;99.90
25200;DHT22;33094;48.782;9.162;2023-07-29T11:32:48;27.10;99.90
25200;DHT22;33094;48.782;9.162;2023-07-29T11:35:16;26.60;99.90
25200;DHT22;33094;48.782;9.162;2023-07-29T11:37:48;25.90;99.90
25200;DHT22;33094;48.782;9.162;2023-07-29T11:40:18;25.70;99.90
25200;DHT22;33094;48.782;9.162;2023-07-29T11:42:48;25.40;99.90
25200;DHT22;33094;48.782;9.162;2023-07-29T11:45:16;25.50;99.90
25200;DHT22;33094;48.782;9.162;2023-07-29T11:47:42;25.60;99.90
25200;DHT22;33094;48.782;9.162;2023-07-29T11:50:10;25.50;99.90
25200;DHT22;33094;48.782;9.162;2023-07-29T11:52:37;25.70;99.90
25200;DHT22;33094;48.782;9.162;2023-07-29T11:55:06;26.00;99.90
25200;DHT22;33094;48.782;9.162;2023-07-29T11:57:34;26.50;99.90
25200;DHT22;33094;48.782;9.162;2023-07-29T12:00:11;27.40;99.90
25200;DHT22;33094;48.782;9.162;2023-07-29T12:02:54;27.80;99.90
25200;DHT22;33094;48.782;9.162;2023-07-29T12:05:22;28.50;99.90
25200;DHT22;33094;48.782;9.162;2023-07-29T12:07:48;29.40;98.40
25200;DHT22;33094;48.782;9.162;2023-07-29T12:10:14;29.50;98.50
25200;DHT22;33094;48.782;9.162;2023-07-29T12:12:47;29.30;98.70
25200;DHT22;33094;48.782;9.162;2023-07-29T12:15:13;29.30;98.80
25200;DHT22;33094;48.782;9.162;2023-07-29T12:17:42;29.20;98.40
25200;DHT22;33094;48.782;9.162;2023-07-29T12:20:09;29.50;97.60
25200;DHT22;33094;48.782;9.162;2023-07-29T12:22:36;29.80;97.50
25200;DHT22;33094;48.782;9.162;2023-07-29T12:25:03;29.70;97.10
25200;DHT22;33094;48.782;9.162;2023-07-29T12:27:30;28.80;96.00
25200;DHT22;33094;48.782;9.162;2023-07-29T12:29:55;28.20;96.70
25200;DHT22;33094;48.782;9.162;2023-07-29T12:32:25;28.20;96.80
25200;DHT22;33094;48.782;9.162;2023-07-29T12:34:53;28.50;96.60
25200;DHT22;33094;48.782;9.162;2023-07-29T12:37:19;27.80;96.60
25200;DHT22;33094;48.782;9.162;2023-07-29T12:39:44;27.10;97.40
25200;DHT22;33094;48.782;9.162;2023-07-29T12:42:10;27.70;96.30
25200;DHT22;33094;48.782;9.162;2023-07-29T12:44:38;28.20;95.00
25200;DHT22;33094;48.782;9.162;2023-07-29T12:47:05;28.90;93.30
25200;DHT22;33094;48.782;9.162;2023-07-29T12:49:31;28.60;92.60
25200;DHT22;33094;48.782;9.162;2023-07-29T12:51:57;28.80;93.20
25200;DHT22;33094;48.782;9.162;2023-07-29T12:54:23;28.80;91.90
25200;DHT22;33094;48.782;9.162;2023-07-29T12:56:49;29.30;91.60
25200;DHT22;33094;48.782;9.162;2023-07-29T12:59:15;28.90;92.10
25200;DHT22;33094;48.782;9.162;2023-07-29T13:01:41;28.50;92.20
25200;DHT22;33094;48.782;9.162;2023-07-29T13:04:06;28.50;92.60
25200;DHT22;33094;48.782;9.162;2023-07-29T13:06:32;28.40;93.20
25200;DHT22;33094;48.782;9.162;2023-07-29T13:08:58;28.90;92.90
25200;DHT22;33094;48.782;9.162;2023-07-29T13:11:23;28.60;92.80
25200;DHT22;33094;48.782;9.162;2023-07-29T13:13:49;28.10;93.20
25200;DHT22;33094;48.782;9.162;2023-07-29T13:16:16;27.80;93.50
25200;DHT22;33094;48.782;9.162;2023-07-29T13:18:44;27.70;93.40
25200;DHT22;33094;48.782;9.162;2023-07-29T13:21:09;28.00;93.10
25200;DHT22;33094;48.782;9.162;2023-07-29T13:23:35;28.50;93.50
25200;DHT22;33094;48.782;9.162;2023-07-29T13:26:01;28.10;93.10
25200;DHT22;33094;48.782;9.162;2023-07-29T13:28:27;27.80;93.70
25200;DHT22;33094;48.782;9.162;2023-07-29T13:30:53;27.60;93.20
25200;DHT22;33094;48.782;9.162;2023-07-29T13:33:18;27.40;93.60
25200;DHT22;33094;48.782;9.162;2023-07-29T13:35:44;27.30;93.70
25200;DHT22;33094;48.782;9.162;2023-07-29T13:38:10;26.90;94.00
25200;DHT22;33094;48.782;9.162;2023-07-29T13:40:36;26.60;93.90
25200;DHT22;33094;48.782;9.162;2023-07-29T13:43:02;26.30;94.50
25200;DHT22;33094;48.782;9.162;2023-07-29T13:45:27;26.40;94.20
25200;DHT22;33094;48.782;9.162;2023-07-29T13:47:53;26.50;94.60
25200;DHT22;33094;48.782;9.162;2023-07-29T13:50:19;26.80;94.50
25200;DHT22;33094;48.782;9.162;2023-07-29T13:52:44;26.80;94.50
25200;DHT22;33094;48.782;9.162;2023-07-29T13:55:12;26.70;94.30
25200;DHT22;33094;48.782;9.162;2023-07-29T13:57:38;26.80;94.00
25200;DHT22;33094;48.782;9.162;2023-07-29T14:00:05;26.90;93.80
25200;DHT22;33094;48.782;9.162;2023-07-29T14:02:31;26.80;94.40
25200;DHT22;33094;48.782;9.162;2023-07-29T14:04:57;26.80;94.20
25200;DHT22;33094;48.782;9.162;2023-07-29T14:07:23;26.80;94.10
25200;DHT22;33094;48.782;9.162;2023-07-29T14:09:48;27.00;94.20
25200;DHT22;33094;48.782;9.162;2023-07-29T14:12:14;26.80;94.50
25200;DHT22;33094;48.782;9.162;2023-07-29T14:14:41;26.90;94.00
25200;DHT22;33094;48.782;9.162;2023-07-29T14:17:07;27.00;93.90
25200;DHT22;33094;48.782;9.162;2023-07-29T14:19:36;27.20;94.20
25200;DHT22;33094;48.782;9.162;2023-07-29T14:22:02;27.50;93.50
25200;DHT22;33094;48.782;9.162;2023-07-29T14:24:27;27.60;93.70
25200;DHT22;33094;48.782;9.162;2023-07-29T14:26:53;27.80;93.70
25200;DHT22;33094;48.782;9.162;2023-07-29T14:29:18;27.90;93.80
25200;DHT22;33094;48.782;9.162;2023-07-29T14:31:44;27.80;93.50
25200;DHT22;33094;48.782;9.162;2023-07-29T14:34:10;27.40;93.90
25200;DHT22;33094;48.782;9.162;2023-07-29T14:36:36;27.20;94.10
25200;DHT22;33094;48.782;9.162;2023-07-29T14:39:02;26.90;93.80
25200;DHT22;33094;48.782;9.162;2023-07-29T14:41:28;26.70;94.40
25200;DHT22;33094;48.782;9.162;2023-07-29T14:43:53;26.60;94.80
25200;DHT22;33094;48.782;9.162;2023-07-29T14:46:19;26.60;94.80
25200;DHT22;33094;48.782;9.162;2023-07-29T14:48:44;26.20;95.40
25200;DHT22;33094;48.782;9.162;2023-07-29T14:51:12;26.30;95.20
25200;DHT22;33094;48.782;9.162;2023-07-29T14:53:41;26.30;94.80
25200;DHT22;33094;48.782;9.162;2023-07-29T14:56:06;26.10;95.30
25200;DHT22;33094;48.782;9.162;2023-07-29T14:58:32;25.90;95.50
25200;DHT22;33094;48.782;9.162;2023-07-29T15:00:58;26.10;95.70
25200;DHT22;33094;48.782;9.162;2023-07-29T15:03:24;26.40;95.50
25200;DHT22;33094;48.782;9.162;2023-07-29T15:05:50;26.60;95.00
25200;DHT22;33094;48.782;9.162;2023-07-29T15:08:16;26.70;94.70
25200;DHT22;33094;48.782;9.162;2023-07-29T15:10:47;26.50;95.30
25200;DHT22;33094;48.782;9.162;2023-07-29T15:13:13;26.50;94.80
25200;DHT22;33094;48.782;9.162;2023-07-29T15:15:43;26.50;95.50
25200;DHT22;33094;48.782;9.162;2023-07-29T15:18:10;26.60;95.20
25200;DHT22;33094;48.782;9.162;2023-07-29T15:20:37;26.60;95.10
25200;DHT22;33094;48.782;9.162;2023-07-29T15:23:05;26.40;95.20
25200;DHT22;33094;48.782;9.162;2023-07-29T15:25:31;26.30;95.50
25200;DHT22;33094;48.782;9.162;2023-07-29T15:27:57;26.20;95.20
25200;DHT22;33094;48.782;9.162;2023-07-29T15:30:23;26.10;95.50
25200;DHT22;33094;48.782;9.162;2023-07-29T15:32:49;26.20;95.50
25200;DHT22;33094;48.782;9.162;2023-07-29T15:35:14;26.20;95.50
25200;DHT22;33094;48.782;9.162;2023-07-29T15:37:40;26.40;95.70
25200;DHT22;33094;48.782;9.162;2023-07-29T15:40:06;26.50;95.30
25200;DHT22;33094;48.782;9.162;2023-07-29T15:42:33;26.60;95.70
25200;DHT22;33094;48.782;9.162;2023-07-29T15:44:58;26.90;95.60
25200;DHT22;33094;48.782;9.162;2023-07-29T15:47:24;27.10;94.90
25200;DHT22;33094;48.782;9.162;2023-07-29T15:49:50;27.10;94.70
25200;DHT22;33094;48.782;9.162;2023-07-29T15:52:16;26.90;94.80
25200;DHT22;33094;48.782;9.162;2023-07-29T15:54:42;26.70;95.00
25200;DHT22;33094;48.782;9.162;2023-07-29T15:57:08;26.70;95.10
25200;DHT22;33094;48.782;9.162;2023-07-29T15:59:34;26.90;95.20
25200;DHT22;33094;48.782;9.162;2023-07-29T16:01:59;27.00;95.00
25200;DHT22;33094;48.782;9.162;2023-07-29T16:04:25;27.00;95.20
25200;DHT22;33094;48.782;9.162;2023-07-29T16:06:51;26.80;95.00
25200;DHT22;33094;48.782;9.162;2023-07-29T16:09:16;26.80;95.10
25200;DHT22;33094;48.782;9.162;2023-07-29T16:11:49;27.10;95.10
25200;DHT22;33094;48.782;9.162;2023-07-29T16:14:14;27.20;94.90
25200;DHT22;33094;48.782;9.162;2023-07-29T16:16:40;27.40;94.70
25200;DHT22;33094;48.782;9.162;2023-07-29T16:19:06;27.40;94.60
25200;DHT22;33094;48.782;9.162;2023-07-29T16:21:32;27.80;94.20
25200;DHT22;33094;48.782;9.162;2023-07-29T16:23:58;27.60;93.30
25200;DHT22;33094;48.782;9.162;2023-07-29T16:26:23;27.30;93.50
25200;DHT22;33094;48.782;9.162;2023-07-29T16:28:49;27.20;93.40
25200;DHT22;33094;48.782;9.162;2023-07-29T16:31:15;27.10;93.20
25200;DHT22;33094;48.782;9.162;2023-07-29T16:33:40;27.10;93.40
25200;DHT22;33094;48.782;9.162;2023-07-29T16:36:06;26.90;93.30
25200;DHT22;33094;48.782;9.162;2023-07-29T16:38:31;27.00;92.90
25200;DHT22;33094;48.782;9.162;2023-07-29T16:40:57;27.00;93.20
25200;DHT22;33094;48.782;9.162;2023-07-29T16:43:23;26.90;93.20
25200;DHT22;33094;48.782;9.162;2023-07-29T16:45:48;26.90;93.20
25200;DHT22;33094;48.782;9.162;2023-07-29T16:48:14;26.90;93.10
25200;DHT22;33094;48.782;9.162;2023-07-29T16:50:40;27.00;93.10
25200;DHT22;33094;48.782;9.162;2023-07-29T16:53:05;26.70;93.30
25200;DHT22;33094;48.782;9.162;2023-07-29T16:55:31;26.60;93.20
25200;DHT22;33094;48.782;9.162;2023-07-29T16:57:56;26.50;93.60
25200;DHT22;33094;48.782;9.162;2023-07-29T17:00:22;26.60;93.40
25200;DHT22;33094;48.782;9.162;2023-07-29T17:02:48;26.60;93.30
25200;DHT22;33094;48.782;9.162;2023-07-29T17:05:14;26.60;93.40
25200;DHT22;33094;48.782;9.162;2023-07-29T17:07:39;26.70;93.70
25200;DHT22;33094;48.782;9.162;2023-07-29T17:10:05;26.50;93.70
25200;DHT22;33094;48.782;9.162;2023-07-29T17:12:31;26.10;94.00
25200;DHT22;33094;48.782;9.162;2023-07-29T17:14:57;25.90;94.10
25200;DHT22;33094;48.782;9.162;2023-07-29T17:17:23;25.80;94.20
25200;DHT22;33094;48.782;9.162;2023-07-29T17:19:48;25.80;94.50
25200;DHT22;33094;48.782;9.162;2023-07-29T17:22:14;25.90;94.40
25200;DHT22;33094;48.782;9.162;2023-07-29T17:24:40;25.60;94.50
25200;DHT22;33094;48.782;9.162;2023-07-29T17:27:06;25.40;94.80
25200;DHT22;33094;48.782;9.162;2023-07-29T17:29:32;25.40;95.20
